sensor_id;sensor_type;location;lat;lon;timestamp;pressure;altitude;pressure_sealevel;temperature;humidity
60820;BME280;46641;48.904;9.126;2024-01-27T00:03:57;100331.56;;;11.53;65.04
60820;BME280;46641;48.904;9.126;2024-01-27T00:08:47;100332.84;;;11.48;64.99
60820;BME280;46641;48.904;9.126;2024-01-27T00:13:37;100342.72;;;11.44;65.02
60820;BME280;46641;48.904;9.126;2024-01-27T00:18:28;100339.34;;;11.42;65.00
60820;BME280;46641;48.904;9.126;2024-01-27T00:23:18;100343.97;;;11.38;65.01
60820;BME280;46641;48.904;9.126;2024-01-27T00:28:08;100345.97;;;11.35;65.15
60820;BME280;46641;48.904;9.126;2024-01-27T00:32:59;100351.31;;;11.33;64.94
60820;BME280;46641;48.904;9.126;2024-01-27T00:37:49;100351.53;;;11.30;65.17
60820;BME280;46641;48.904;9.126;2024-01-27T00:42:40;100370.28;;;11.24;65.10
60820;BME280;46641;48.904;9.126;2024-01-27T00:47:31;100364.44;;;11.20;65.12
60820;BME280;46641;48.904;9.126;2024-01-27T00:52:21;100348.81;;;11.19;65.60
60820;BME280;46641;48.904;9.126;2024-01-27T00:57:11;100356.06;;;11.15;65.09
60820;BME280;46641;48.904;9.126;2024-01-27T01:02:02;100362.44;;;11.11;65.32
60820;BME280;46641;48.904;9.126;2024-01-27T01:06:52;100360.06;;;11.08;65.36
60820;BME280;46641;48.904;9.126;2024-01-27T01:11:42;100359.50;;;11.03;65.34
60820;BME280;46641;48.904;9.126;2024-01-27T01:16:33;100368.31;;;11.02;65.43
60820;BME280;46641;48.904;9.126;2024-01-27T01:21:23;100372.06;;;10.98;65.36
60820;BME280;46641;48.904;9.126;2024-01-27T01:26:13;100374.91;;;10.95;65.71
60820;BME280;46641;48.904;9.126;2024-01-27T01:31:06;100379.63;;;10.90;65.57
60820;BME280;46641;48.904;9.126;2024-01-27T01:35:57;100365.91;;;10.86;65.79
60820;BME280;46641;48.904;9.126;2024-01-27T01:40:48;100371.44;;;10.82;65.72
60820;BME280;46641;48.904;9.126;2024-01-27T01:45:38;100376.88;;;10.79;65.66
60820;BME280;46641;48.904;9.126;2024-01-27T01:50:28;100385.81;;;10.76;65.85
60820;BME280;46641;48.904;9.126;2024-01-27T01:55:19;100400.88;;;10.72;65.74
60820;BME280;46641;48.904;9.126;2024-01-27T02:00:10;100400.97;;;10.71;65.68
60820;BME280;46641;48.904;9.126;2024-01-27T02:05:00;100402.13;;;10.67;65.69
60820;BME280;46641;48.904;9.126;2024-01-27T02:09:51;100412.69;;;10.65;65.97
60820;BME280;46641;48.904;9.126;2024-01-27T02:14:42;100405.13;;;10.61;65.93
60820;BME280;46641;48.904;9.126;2024-01-27T02:19:32;100421.88;;;10.58;65.88
60820;BME280;46641;48.904;9.126;2024-01-27T02:24:22;100433.38;;;10.56;65.78
60820;BME280;46641;48.904;9.126;2024-01-27T02:29:12;100431.91;;;10.51;65.94
60820;BME280;46641;48.904;9.126;2024-01-27T02:34:03;100444.25;;;10.49;65.81
60820;BME280;46641;48.904;9.126;2024-01-27T02:38:53;100443.63;;;10.46;65.99
60820;BME280;46641;48.904;9.126;2024-01-27T02:43:43;100433.34;;;10.43;66.11
60820;BME280;46641;48.904;9.126;2024-01-27T02:48:33;100446.53;;;10.41;66.17
60820;BME280;46641;48.904;9.126;2024-01-27T02:53:24;100445.06;;;10.37;65.94
60820;BME280;46641;48.904;9.126;2024-01-27T02:58:14;100447.75;;;10.36;66.13
60820;BME280;46641;48.904;9.126;2024-01-27T03:03:04;100447.97;;;10.33;66.21
60820;BME280;46641;48.904;9.126;2024-01-27T03:07:55;100449.84;;;10.31;66.09
60820;BME280;46641;48.904;9.126;2024-01-27T03:12:46;100448.34;;;10.26;66.33
60820;BME280;46641;48.904;9.126;2024-01-27T03:17:36;100444.13;;;10.24;66.08
60820;BME280;46641;48.904;9.126;2024-01-27T03:22:26;100446.00;;;10.22;66.23
60820;BME280;46641;48.904;9.126;2024-01-27T03:27:17;100451.44;;;10.19;66.59
60820;BME280;46641;48.904;9.126;2024-01-27T03:32:07;100458.53;;;10.17;66.11
60820;BME280;46641;48.904;9.126;2024-01-27T03:36:57;100464.81;;;10.14;66.46
60820;BME280;46641;48.904;9.126;2024-01-27T03:41:48;100467.69;;;10.10;66.35
60820;BME280;46641;48.904;9.126;2024-01-27T03:46:38;100474.81;;;10.07;66.62
60820;BME280;46641;48.904;9.126;2024-01-27T03:51:29;100482.75;;;10.06;66.31
60820;BME280;46641;48.904;9.126;2024-01-27T03:56:19;100488.16;;;10.03;66.50
60820;BME280;46641;48.904;9.126;2024-01-27T04:01:09;100493.59;;;10.00;66.63
60820;BME280;46641;48.904;9.126;2024-01-27T04:05:59;100486.69;;;9.99;66.56
60820;BME280;46641;48.904;9.126;2024-01-27T04:10:52;100494.63;;;9.97;66.66
60820;BME280;46641;48.904;9.126;2024-01-27T04:15:42;100494.81;;;9.94;66.62
60820;BME280;46641;48.904;9.126;2024-01-27T04:20:32;100491.47;;;9.92;66.65
60820;BME280;46641;48.904;9.126;2024-01-27T04:25:22;100488.19;;;9.89;66.83
60820;BME280;46641;48.904;9.126;2024-01-27T04:30:13;100493.63;;;9.86;66.93
60820;BME280;46641;48.904;9.126;2024-01-27T04:35:04;100512.00;;;9.84;66.68
60820;BME280;46641;48.904;9.126;2024-01-27T04:39:54;100500.81;;;9.82;66.57
60820;BME280;46641;48.904;9.126;2024-01-27T04:44:45;100506.22;;;9.79;66.86
60820;BME280;46641;48.904;9.126;2024-01-27T04:49:35;100511.53;;;9.77;66.83
60820;BME280;46641;48.904;9.126;2024-01-27T04:54:25;100516.94;;;9.74;66.81
60820;BME280;46641;48.904;9.126;2024-01-27T04:59:15;100521.44;;;9.72;66.83
60820;BME280;46641;48.904;9.126;2024-01-27T05:04:06;100515.56;;;9.69;66.72
60820;BME280;46641;48.904;9.126;2024-01-27T05:08:56;100519.91;;;9.68;66.87
60820;BME280;46641;48.904;9.126;2024-01-27T05:13:46;100520.13;;;9.65;66.97
60820;BME280;46641;48.904;9.126;2024-01-27T05:18:36;100539.34;;;9.64;66.94
60820;BME280;46641;48.904;9.126;2024-01-27T05:23:27;100529.06;;;9.61;66.73
60820;BME280;46641;48.904;9.126;2024-01-27T05:28:17;100524.78;;;9.60;67.38
60820;BME280;46641;48.904;9.126;2024-01-27T05:33:07;100515.44;;;9.56;67.02
60820;BME280;46641;48.904;9.126;2024-01-27T05:37:58;100514.69;;;9.54;66.92
60820;BME280;46641;48.904;9.126;2024-01-27T05:42:48;100511.31;;;9.52;67.21
60820;BME280;46641;48.904;9.126;2024-01-27T05:47:39;100525.31;;;9.51;66.76
60820;BME280;46641;48.904;9.126;2024-01-27T05:52:29;100520.19;;;9.49;67.21
60820;BME280;46641;48.904;9.126;2024-01-27T05:57:20;100528.31;;;8.84;62.27
60820;BME280;46641;48.904;9.126;2024-01-27T06:02:10;100528.88;;;8.89;60.44
60820;BME280;46641;48.904;9.126;2024-01-27T06:07:01;100519.81;;;8.81;59.00
60820;BME280;46641;48.904;9.126;2024-01-27T06:11:51;100531.84;;;8.68;58.42
60820;BME280;46641;48.904;9.126;2024-01-27T06:16:41;100530.09;;;8.52;58.45
60820;BME280;46641;48.904;9.126;2024-01-27T06:21:31;100534.97;;;7.76;59.88
60820;BME280;46641;48.904;9.126;2024-01-27T06:26:22;100554.19;;;8.24;61.27
60820;BME280;46641;48.904;9.126;2024-01-27T06:31:12;100542.63;;;8.46;61.49
60820;BME280;46641;48.904;9.126;2024-01-27T06:36:04;100541.94;;;8.58;61.92
60820;BME280;46641;48.904;9.126;2024-01-27T06:40:55;100554.75;;;8.62;61.94
60820;BME280;46641;48.904;9.126;2024-01-27T06:45:45;100556.38;;;8.65;62.20
60820;BME280;46641;48.904;9.126;2024-01-27T06:50:35;100552.97;;;8.63;62.42
60820;BME280;46641;48.904;9.126;2024-01-27T06:55:26;100553.09;;;8.61;62.93
60820;BME280;46641;48.904;9.126;2024-01-27T07:00:16;100553.91;;;8.62;63.05
60820;BME280;46641;48.904;9.126;2024-01-27T07:05:08;100567.03;;;8.60;63.59
60820;BME280;46641;48.904;9.126;2024-01-27T07:09:59;100556.59;;;8.60;63.50
60820;BME280;46641;48.904;9.126;2024-01-27T07:14:50;100561.16;;;8.57;63.99
60820;BME280;46641;48.904;9.126;2024-01-27T07:19:41;100572.44;;;8.57;64.25
60820;BME280;46641;48.904;9.126;2024-01-27T07:24:31;100573.25;;;8.58;64.39
60820;BME280;46641;48.904;9.126;2024-01-27T07:29:22;100572.53;;;8.56;64.08
60820;BME280;46641;48.904;9.126;2024-01-27T07:34:12;100578.69;;;8.55;64.50
60820;BME280;46641;48.904;9.126;2024-01-27T07:39:02;100582.19;;;8.54;65.15
60820;BME280;46641;48.904;9.126;2024-01-27T07:43:54;100575.31;;;8.53;64.84
60820;BME280;46641;48.904;9.126;2024-01-27T07:48:45;100569.16;;;8.54;64.64
60820;BME280;46641;48.904;9.126;2024-01-27T07:53:35;100575.31;;;8.53;65.35
60820;BME280;46641;48.904;9.126;2024-01-27T07:58:26;100587.56;;;8.51;64.83
60820;BME280;46641;48.904;9.126;2024-01-27T08:03:16;100573.63;;;8.52;65.59
60820;BME280;46641;48.904;9.126;2024-01-27T08:08:06;100571.84;;;8.52;65.25
60820;BME280;46641;48.904;9.126;2024-01-27T08:12:56;100562.25;;;8.53;65.88
60820;BME280;46641;48.904;9.126;2024-01-27T08:17:47;100561.47;;;8.51;65.73
60820;BME280;46641;48.904;9.126;2024-01-27T08:22:37;100570.25;;;8.50;65.60
60820;BME280;46641;48.904;9.126;2024-01-27T08:27:27;100568.47;;;8.50;65.99
60820;BME280;46641;48.904;9.126;2024-01-27T08:32:18;100562.31;;;8.51;65.91
60820;BME280;46641;48.904;9.126;2024-01-27T08:37:18;100563.19;;;8.52;65.69
60820;BME280;46641;48.904;9.126;2024-01-27T08:42:09;100556.25;;;8.51;66.25
60820;BME280;46641;48.904;9.126;2024-01-27T08:46:59;100552.75;;;8.52;65.70
60820;BME280;46641;48.904;9.126;2024-01-27T08:51:49;100572.75;;;8.51;66.01
60820;BME280;46641;48.904;9.126;2024-01-27T08:56:40;100565.03;;;8.50;66.12
60820;BME280;46641;48.904;9.126;2024-01-27T09:01:31;100564.94;;;8.51;65.93
60820;BME280;46641;48.904;9.126;2024-01-27T09:06:21;100559.81;;;8.50;66.43
60820;BME280;46641;48.904;9.126;2024-01-27T09:11:11;100556.34;;;8.49;66.28
60820;BME280;46641;48.904;9.126;2024-01-27T09:16:02;100567.53;;;8.51;66.45
60820;BME280;46641;48.904;9.126;2024-01-27T09:20:52;100572.69;;;8.53;66.74
60820;BME280;46641;48.904;9.126;2024-01-27T09:25:42;100574.38;;;8.54;66.46
60820;BME280;46641;48.904;9.126;2024-01-27T09:30:33;100576.75;;;8.58;66.57
60820;BME280;46641;48.904;9.126;2024-01-27T09:35:23;100585.19;;;7.97;65.64
60820;BME280;46641;48.904;9.126;2024-01-27T09:40:13;100593.47;;;8.38;63.06
60820;BME280;46641;48.904;9.126;2024-01-27T09:45:04;100595.50;;;8.49;62.03
60820;BME280;46641;48.904;9.126;2024-01-27T09:49:55;100588.34;;;8.53;61.48
60820;BME280;46641;48.904;9.126;2024-01-27T09:54:45;100592.91;;;8.49;61.26
60820;BME280;46641;48.904;9.126;2024-01-27T09:59:36;100609.38;;;7.83;64.34
60820;BME280;46641;48.904;9.126;2024-01-27T10:04:27;100604.94;;;8.34;63.40
60820;BME280;46641;48.904;9.126;2024-01-27T10:09:18;100612.25;;;8.61;62.92
60820;BME280;46641;48.904;9.126;2024-01-27T10:14:08;100610.59;;;8.76;63.04
60820;BME280;46641;48.904;9.126;2024-01-27T10:19:03;100609.16;;;8.86;63.50
60820;BME280;46641;48.904;9.126;2024-01-27T10:23:53;100605.09;;;8.96;63.81
60820;BME280;46641;48.904;9.126;2024-01-27T10:28:52;100601.91;;;9.07;63.48
60820;BME280;46641;48.904;9.126;2024-01-27T10:33:54;100591.78;;;9.17;63.41
60820;BME280;46641;48.904;9.126;2024-01-27T10:38:45;100596.38;;;9.27;63.83
60820;BME280;46641;48.904;9.126;2024-01-27T10:43:36;100583.81;;;9.34;64.09
60820;BME280;46641;48.904;9.126;2024-01-27T10:48:27;100568.69;;;9.39;63.81
60820;BME280;46641;48.904;9.126;2024-01-27T10:53:22;100556.88;;;9.48;63.86
60820;BME280;46641;48.904;9.126;2024-01-27T10:58:14;100546.06;;;9.54;63.66
60820;BME280;46641;48.904;9.126;2024-01-27T11:03:06;100538.63;;;9.62;63.26
60820;BME280;46641;48.904;9.126;2024-01-27T11:07:58;100531.13;;;9.70;62.79
60820;BME280;46641;48.904;9.126;2024-01-27T11:12:49;100535.16;;;9.76;63.16
60820;BME280;46641;48.904;9.126;2024-01-27T11:17:41;100522.56;;;9.82;63.05
60820;BME280;46641;48.904;9.126;2024-01-27T11:22:32;100523.88;;;9.90;63.38
60820;BME280;46641;48.904;9.126;2024-01-27T11:27:27;100508.44;;;9.99;62.64
60820;BME280;46641;48.904;9.126;2024-01-27T11:32:20;100516.38;;;10.12;63.12
60820;BME280;46641;48.904;9.126;2024-01-27T11:37:15;100519.16;;;10.23;63.49
60820;BME280;46641;48.904;9.126;2024-01-27T11:42:10;100526.28;;;10.36;62.79
60820;BME280;46641;48.904;9.126;2024-01-27T11:47:04;100517.22;;;10.41;62.91
60820;BME280;46641;48.904;9.126;2024-01-27T11:51:54;100514.22;;;10.47;63.76
60820;BME280;46641;48.904;9.126;2024-01-27T11:56:45;100502.97;;;10.60;62.44
60820;BME280;46641;48.904;9.126;2024-01-27T12:01:36;100498.38;;;10.63;63.91
60820;BME280;46641;48.904;9.126;2024-01-27T12:06:27;100506.34;;;10.74;63.83
60820;BME280;46641;48.904;9.126;2024-01-27T12:11:17;100508.38;;;10.84;63.74
60820;BME280;46641;48.904;9.126;2024-01-27T12:16:08;100491.31;;;10.91;64.15
60820;BME280;46641;48.904;9.126;2024-01-27T12:20:59;100475.94;;;10.99;64.17
60820;BME280;46641;48.904;9.126;2024-01-27T12:25:53;100474.59;;;11.06;63.75
60820;BME280;46641;48.904;9.126;2024-01-27T12:30:44;100470.63;;;11.13;64.10
60820;BME280;46641;48.904;9.126;2024-01-27T12:35:34;100464.78;;;11.22;64.34
60820;BME280;46641;48.904;9.126;2024-01-27T12:40:26;100459.13;;;11.29;64.26
60820;BME280;46641;48.904;9.126;2024-01-27T12:45:16;100452.50;;;11.36;64.27
60820;BME280;46641;48.904;9.126;2024-01-27T12:50:07;100455.34;;;11.45;64.48
60820;BME280;46641;48.904;9.126;2024-01-27T12:54:58;100456.50;;;11.54;64.20
60820;BME280;46641;48.904;9.126;2024-01-27T12:59:48;100457.75;;;11.61;64.37
60820;BME280;46641;48.904;9.126;2024-01-27T13:04:39;100464.16;;;11.70;63.93
60820;BME280;46641;48.904;9.126;2024-01-27T13:09:29;100462.03;;;11.75;64.83
60820;BME280;46641;48.904;9.126;2024-01-27T13:14:19;100454.47;;;11.83;64.46
60820;BME280;46641;48.904;9.126;2024-01-27T13:19:10;100454.91;;;11.90;64.39
60820;BME280;46641;48.904;9.126;2024-01-27T13:24:01;100450.38;;;11.92;64.14
60820;BME280;46641;48.904;9.126;2024-01-27T13:28:51;100450.91;;;11.97;63.43
60820;BME280;46641;48.904;9.126;2024-01-27T13:33:41;100447.53;;;11.95;63.76
60820;BME280;46641;48.904;9.126;2024-01-27T13:38:32;100442.09;;;11.98;64.25
60820;BME280;46641;48.904;9.126;2024-01-27T13:43:22;100444.41;;;12.03;64.33
60820;BME280;46641;48.904;9.126;2024-01-27T13:48:13;100442.47;;;12.05;63.67
60820;BME280;46641;48.904;9.126;2024-01-27T13:53:03;100441.31;;;12.09;63.70
60820;BME280;46641;48.904;9.126;2024-01-27T13:57:55;100438.59;;;12.10;63.84
60820;BME280;46641;48.904;9.126;2024-01-27T14:02:45;100434.91;;;12.13;63.58
60820;BME280;46641;48.904;9.126;2024-01-27T14:07:36;100414.97;;;12.10;63.64
60820;BME280;46641;48.904;9.126;2024-01-27T14:12:27;100404.47;;;12.10;63.07
60820;BME280;46641;48.904;9.126;2024-01-27T14:17:18;100410.91;;;12.06;63.10
60820;BME280;46641;48.904;9.126;2024-01-27T14:22:10;100390.59;;;12.08;62.92
60820;BME280;46641;48.904;9.126;2024-01-27T14:27:01;100394.19;;;12.07;62.73
60820;BME280;46641;48.904;9.126;2024-01-27T14:31:52;100402.06;;;12.07;62.48
60820;BME280;46641;48.904;9.126;2024-01-27T14:36:42;100395.16;;;12.06;62.81
60820;BME280;46641;48.904;9.126;2024-01-27T14:41:33;100391.56;;;12.07;62.62
60820;BME280;46641;48.904;9.126;2024-01-27T14:46:24;100384.88;;;12.03;62.36
60820;BME280;46641;48.904;9.126;2024-01-27T14:51:14;100386.53;;;12.04;62.33
60820;BME280;46641;48.904;9.126;2024-01-27T14:56:05;100397.78;;;12.06;62.47
60820;BME280;46641;48.904;9.126;2024-01-27T15:00:55;100382.03;;;12.06;61.28
60820;BME280;46641;48.904;9.126;2024-01-27T15:05:46;100385.59;;;12.05;61.76
60820;BME280;46641;48.904;9.126;2024-01-27T15:10:36;100391.56;;;12.07;62.42
60820;BME280;46641;48.904;9.126;2024-01-27T15:15:26;100386.94;;;12.11;62.24
60820;BME280;46641;48.904;9.126;2024-01-27T15:20:16;100383.47;;;12.10;62.12
60820;BME280;46641;48.904;9.126;2024-01-27T15:25:07;100389.34;;;12.14;62.50
60820;BME280;46641;48.904;9.126;2024-01-27T15:29:57;100389.47;;;12.12;61.74
60820;BME280;46641;48.904;9.126;2024-01-27T15:34:48;100388.59;;;12.12;62.18
60820;BME280;46641;48.904;9.126;2024-01-27T15:39:39;100376.56;;;12.09;62.24
60820;BME280;46641;48.904;9.126;2024-01-27T15:44:30;100385.34;;;12.08;62.04
60820;BME280;46641;48.904;9.126;2024-01-27T15:49:20;100381.28;;;12.04;61.96
60820;BME280;46641;48.904;9.126;2024-01-27T15:54:10;100373.16;;;11.96;62.59
60820;BME280;46641;48.904;9.126;2024-01-27T15:59:01;100370.13;;;11.89;62.43
60820;BME280;46641;48.904;9.126;2024-01-27T16:03:51;100379.22;;;11.84;62.81
60820;BME280;46641;48.904;9.126;2024-01-27T16:08:41;100387.31;;;11.81;63.06
60820;BME280;46641;48.904;9.126;2024-01-27T16:13:31;100386.69;;;11.77;63.64
60820;BME280;46641;48.904;9.126;2024-01-27T16:18:22;100387.75;;;11.75;63.78
60820;BME280;46641;48.904;9.126;2024-01-27T16:23:12;100386.28;;;11.70;63.69
60820;BME280;46641;48.904;9.126;2024-01-27T16:28:04;100384.81;;;11.66;63.98
60820;BME280;46641;48.904;9.126;2024-01-27T16:32:54;100395.56;;;11.63;64.21
60820;BME280;46641;48.904;9.126;2024-01-27T16:37:44;100394.06;;;11.59;64.30
60820;BME280;46641;48.904;9.126;2024-01-27T16:42:35;100399.53;;;11.56;64.37
60820;BME280;46641;48.904;9.126;2024-01-27T16:47:27;100404.16;;;11.53;64.65
60820;BME280;46641;48.904;9.126;2024-01-27T16:52:17;100422.50;;;11.53;64.31
60820;BME280;46641;48.904;9.126;2024-01-27T16:57:07;100415.81;;;11.49;64.52
60820;BME280;46641;48.904;9.126;2024-01-27T17:01:58;100421.13;;;11.47;64.52
60820;BME280;46641;48.904;9.126;2024-01-27T17:06:49;100423.03;;;11.45;64.59
60820;BME280;46641;48.904;9.126;2024-01-27T17:11:41;100427.66;;;11.41;64.76
60820;BME280;46641;48.904;9.126;2024-01-27T17:16:31;100418.22;;;11.39;64.50
60820;BME280;46641;48.904;9.126;2024-01-27T17:21:22;100423.66;;;11.36;64.45
60820;BME280;46641;48.904;9.126;2024-01-27T17:26:12;100420.31;;;11.34;64.48
60820;BME280;46641;48.904;9.126;2024-01-27T17:31:04;100424.09;;;11.30;64.59
60820;BME280;46641;48.904;9.126;2024-01-27T17:35:55;100417.38;;;11.26;64.86
60820;BME280;46641;48.904;9.126;2024-01-27T17:40:45;100408.78;;;11.23;64.81
60820;BME280;46641;48.904;9.126;2024-01-27T17:45:35;100414.97;;;11.22;64.94
60820;BME280;46641;48.904;9.126;2024-01-27T17:50:26;100408.25;;;11.18;65.00
60820;BME280;46641;48.904;9.126;2024-01-27T17:55:16;100403.13;;;11.17;64.88
60820;BME280;46641;48.904;9.126;2024-01-27T18:00:07;100409.41;;;11.14;64.68
60820;BME280;46641;48.904;9.126;2024-01-27T18:05:00;100415.78;;;11.10;64.82
60820;BME280;46641;48.904;9.126;2024-01-27T18:09:50;100414.22;;;11.08;65.07
60820;BME280;46641;48.904;9.126;2024-01-27T18:14:40;100418.00;;;11.04;65.20
60820;BME280;46641;48.904;9.126;2024-01-27T18:19:30;100433.19;;;10.98;65.03
60820;BME280;46641;48.904;9.126;2024-01-27T18:24:21;100449.22;;;10.94;65.01
60820;BME280;46641;48.904;9.126;2024-01-27T18:29:11;100451.31;;;10.89;65.17
60820;BME280;46641;48.904;9.126;2024-01-27T18:34:02;100440.16;;;10.85;65.26
60820;BME280;46641;48.904;9.126;2024-01-27T18:38:53;100441.22;;;10.83;65.37
60820;BME280;46641;48.904;9.126;2024-01-27T18:43:44;100438.06;;;10.77;65.24
60820;BME280;46641;48.904;9.126;2024-01-27T18:48:35;100443.50;;;10.74;65.36
60820;BME280;46641;48.904;9.126;2024-01-27T18:53:28;100439.41;;;10.70;65.38
60820;BME280;46641;48.904;9.126;2024-01-27T18:58:19;100438.88;;;10.65;65.48
60820;BME280;46641;48.904;9.126;2024-01-27T19:03:12;100438.16;;;10.63;65.52
60820;BME280;46641;48.904;9.126;2024-01-27T19:08:02;100438.34;;;10.60;65.46
60820;BME280;46641;48.904;9.126;2024-01-27T19:12:53;100437.59;;;10.58;65.44
60820;BME280;46641;48.904;9.126;2024-01-27T19:17:44;100445.63;;;10.55;65.45
60820;BME280;46641;48.904;9.126;2024-01-27T19:22:34;100441.56;;;10.51;65.52
60820;BME280;46641;48.904;9.126;2024-01-27T19:27:24;100441.75;;;10.48;65.46
60820;BME280;46641;48.904;9.126;2024-01-27T19:32:15;100437.66;;;10.44;65.28
60820;BME280;46641;48.904;9.126;2024-01-27T19:37:05;100437.84;;;10.41;65.56
60820;BME280;46641;48.904;9.126;2024-01-27T19:41:55;100432.81;;;10.38;65.57
60820;BME280;46641;48.904;9.126;2024-01-27T19:46:46;100429.56;;;10.34;65.67
60820;BME280;46641;48.904;9.126;2024-01-27T19:51:43;100423.69;;;10.31;65.29
60820;BME280;46641;48.904;9.126;2024-01-27T19:56:36;100430.91;;;10.27;65.75
60820;BME280;46641;48.904;9.126;2024-01-27T20:01:26;100429.28;;;10.24;65.54
60820;BME280;46641;48.904;9.126;2024-01-27T20:06:16;100430.50;;;10.19;65.75
60820;BME280;46641;48.904;9.126;2024-01-27T20:11:07;100428.91;;;10.16;65.86
60820;BME280;46641;48.904;9.126;2024-01-27T20:15:59;100427.44;;;10.12;65.78
60820;BME280;46641;48.904;9.126;2024-01-27T20:20:49;100431.91;;;10.10;65.80
60820;BME280;46641;48.904;9.126;2024-01-27T20:25:43;100427.72;;;10.07;65.59
60820;BME280;46641;48.904;9.126;2024-01-27T20:30:33;100432.28;;;10.04;66.10
60820;BME280;46641;48.904;9.126;2024-01-27T20:35:24;100425.59;;;10.00;65.87
60820;BME280;46641;48.904;9.126;2024-01-27T20:40:16;100420.66;;;9.95;65.83
60820;BME280;46641;48.904;9.126;2024-01-27T20:45:06;100419.06;;;9.93;66.11
60820;BME280;46641;48.904;9.126;2024-01-27T20:49:56;100415.69;;;9.91;65.84
60820;BME280;46641;48.904;9.126;2024-01-27T20:54:48;100410.94;;;9.83;65.99
60820;BME280;46641;48.904;9.126;2024-01-27T20:59:38;100415.53;;;9.79;66.38
60820;BME280;46641;48.904;9.126;2024-01-27T21:04:28;100413.09;;;9.76;66.01
60820;BME280;46641;48.904;9.126;2024-01-27T21:09:19;100418.53;;;9.73;65.54
60820;BME280;46641;48.904;9.126;2024-01-27T21:14:09;100403.03;;;9.70;66.13
60820;BME280;46641;48.904;9.126;2024-01-27T21:18:59;100406.78;;;9.66;66.04
60820;BME280;46641;48.904;9.126;2024-01-27T21:23:49;100402.50;;;9.65;65.93
60820;BME280;46641;48.904;9.126;2024-01-27T21:28:40;100397.34;;;9.64;66.25
60820;BME280;46641;48.904;9.126;2024-01-27T21:33:30;100381.94;;;9.59;66.13
60820;BME280;46641;48.904;9.126;2024-01-27T21:38:21;100377.75;;;9.56;66.15
60820;BME280;46641;48.904;9.126;2024-01-27T21:43:11;100376.16;;;9.54;65.98
60820;BME280;46641;48.904;9.126;2024-01-27T21:48:03;100377.00;;;9.54;66.36
60820;BME280;46641;48.904;9.126;2024-01-27T21:52:56;100385.84;;;9.52;66.14
60820;BME280;46641;48.904;9.126;2024-01-27T21:57:46;100380.63;;;9.52;66.37
60820;BME280;46641;48.904;9.126;2024-01-27T22:02:36;100377.28;;;9.50;66.44
60820;BME280;46641;48.904;9.126;2024-01-27T22:07:27;100366.06;;;9.48;66.33
60820;BME280;46641;48.904;9.126;2024-01-27T22:12:17;100367.97;;;9.46;66.49
60820;BME280;46641;48.904;9.126;2024-01-27T22:17:09;100367.19;;;9.44;66.52
60820;BME280;46641;48.904;9.126;2024-01-27T22:22:00;100370.66;;;9.44;66.35
60820;BME280;46641;48.904;9.126;2024-01-27T22:26:50;100357.78;;;9.41;66.48
60820;BME280;46641;48.904;9.126;2024-01-27T22:31:41;100345.72;;;9.39;66.44
60820;BME280;46641;48.904;9.126;2024-01-27T22:36:31;100341.56;;;9.36;66.91
60820;BME280;46641;48.904;9.126;2024-01-27T22:41:22;100332.97;;;9.34;66.60
60820;BME280;46641;48.904;9.126;2024-01-27T22:46:12;100333.97;;;9.31;66.56
60820;BME280;46641;48.904;9.126;2024-01-27T22:51:03;100329.69;;;9.30;66.62
60820;BME280;46641;48.904;9.126;2024-01-27T22:55:53;100322.78;;;9.29;66.59
60820;BME280;46641;48.904;9.126;2024-01-27T23:00:43;100330.72;;;9.28;66.19
60820;BME280;46641;48.904;9.126;2024-01-27T23:05:34;100327.34;;;9.26;66.44
60820;BME280;46641;48.904;9.126;2024-01-27T23:10:24;100322.13;;;9.26;66.73
60820;BME280;46641;48.904;9.126;2024-01-27T23:15:21;100315.34;;;9.23;66.89
60820;BME280;46641;48.904;9.126;2024-01-27T23:20:11;100314.59;;;9.21;66.52
60820;BME280;46641;48.904;9.126;2024-01-27T23:25:02;100314.78;;;9.18;66.82
60820;BME280;46641;48.904;9.126;2024-01-27T23:29:53;100307.94;;;9.16;66.58
60820;BME280;46641;48.904;9.126;2024-01-27T23:34:43;100307.13;;;9.15;66.82
60820;BME280;46641;48.904;9.126;2024-01-27T23:39:33;100307.22;;;9.13;66.52
60820;BME280;46641;48.904;9.126;2024-01-27T23:44:24;100308.97;;;9.13;66.77
60820;BME280;46641;48.904;9.126;2024-01-27T23:49:14;100305.63;;;9.11;66.63
60820;BME280;46641;48.904;9.126;2024-01-27T23:54:04;100296.13;;;9.10;66.47
60820;BME280;46641;48.904;9.126;2024-01-27T23:59:02;100289.22;;;9.09;66.90
